Time;durP1;ratioP1;P1;durP2;ratioP2;P2;SDS_P1;SDS_P2;PMS_P1;PMS_P2;Temp;Humidity;BMP_temperature;BMP_pressure;BME280_temperature;BME280_humidity;BME280_pressure;Samples;Min_cycle;Max_cycle;Signal;HPM_P1;HPM_P2
2022/03/11 00:00:30;;;;;;;8.03;6.07;;;;;;;;;;5048207;28;20564;-68
2022/03/11 00:02:55;;;;;;;10.53;7.10;;;;;;;;;;5048888;28;20850;-66
2022/03/11 00:05:21;;;;;;;11.97;7.07;;;;;;;;;;5049267;28;20646;-66
2022/03/11 00:07:46;;;;;;;10.67;6.63;;;;;;;;;;5048840;28;20192;-68
2022/03/11 00:10:11;;;;;;;11.93;7.67;;;;;;;;;;5053863;28;20689;-67
2022/03/11 00:12:37;;;;;;;10.20;6.47;;;;;;;;;;5057376;28;20197;-68
2022/03/11 00:15:03;;;;;;;10.53;6.40;;;;;;;;;;5036198;28;20212;-68
2022/03/11 00:17:28;;;;;;;9.70;7.03;;;;;;;;;;5069621;28;20583;-68
2022/03/11 00:19:53;;;;;;;11.27;7.50;;;;;;;;;;5066586;28;20232;-66
2022/03/11 00:22:18;;;;;;;10.07;7.20;;;;;;;;;;5057341;28;20203;-66
2022/03/11 00:24:44;;;;;;;10.13;7.10;;;;;;;;;;5062244;28;20255;-66
2022/03/11 00:27:09;;;;;;;11.03;7.40;;;;;;;;;;5065743;28;20180;-67
2022/03/11 00:29:34;;;;;;;9.77;7.30;;;;;;;;;;5047546;28;20207;-67
2022/03/11 00:31:59;;;;;;;13.30;6.97;;;;;;;;;;5059440;28;20339;-67
2022/03/11 00:34:24;;;;;;;9.33;6.73;;;;;;;;;;5049931;28;20749;-67
2022/03/11 00:36:49;;;;;;;9.80;6.57;;;;;;;;;;5050295;28;20181;-67
2022/03/11 00:39:15;;;;;;;10.70;6.47;;;;;;;;;;5052336;28;20181;-67
2022/03/11 00:41:40;;;;;;;9.10;6.30;;;;;;;;;;5052380;28;20204;-67
2022/03/11 00:44:05;;;;;;;12.83;7.20;;;;;;;;;;5069449;28;20180;-67
2022/03/11 00:46:31;;;;;;;10.50;6.77;;;;;;;;;;5065840;28;20181;-67
2022/03/11 00:48:56;;;;;;;11.07;7.23;;;;;;;;;;5066598;28;21120;-66
2022/03/11 00:51:21;;;;;;;11.57;7.10;;;;;;;;;;5067208;28;20287;-67
2022/03/11 00:53:46;;;;;;;11.23;7.50;;;;;;;;;;5070289;28;20170;-66
2022/03/11 00:56:11;;;;;;;11.40;7.27;;;;;;;;;;5069799;28;20256;-67
2022/03/11 00:58:36;;;;;;;10.93;6.63;;;;;;;;;;5062579;28;20605;-67
2022/03/11 01:01:02;;;;;;;9.87;6.57;;;;;;;;;;5066270;28;20290;-65
2022/03/11 01:03:27;;;;;;;11.03;7.70;;;;;;;;;;5067032;28;20181;-67
2022/03/11 01:05:53;;;;;;;16.93;8.73;;;;;;;;;;5066026;28;20711;-67
2022/03/11 01:08:18;;;;;;;10.37;7.53;;;;;;;;;;5068890;28;20254;-67
2022/03/11 01:10:43;;;;;;;11.37;7.20;;;;;;;;;;5063623;28;20213;-67
2022/03/11 01:13:08;;;;;;;10.03;7.27;;;;;;;;;;5046285;28;20502;-67
2022/03/11 01:15:33;;;;;;;12.67;7.33;;;;;;;;;;5069592;28;20180;-68
2022/03/11 01:17:59;;;;;;;10.70;7.90;;;;;;;;;;5070543;28;20181;-68
2022/03/11 01:20:24;;;;;;;9.60;7.60;;;;;;;;;;5069643;28;20563;-68
2022/03/11 01:22:49;;;;;;;11.97;7.73;;;;;;;;;;5068737;28;20197;-68
2022/03/11 01:25:14;;;;;;;11.27;7.83;;;;;;;;;;5067746;28;20555;-67
2022/03/11 01:27:40;;;;;;;13.13;7.93;;;;;;;;;;5070046;28;20254;-68
2022/03/11 01:30:06;;;;;;;9.63;7.03;;;;;;;;;;5069387;28;20683;-66
2022/03/11 01:32:31;;;;;;;12.60;8.07;;;;;;;;;;5066109;28;20184;-68
2022/03/11 01:34:56;;;;;;;12.60;6.70;;;;;;;;;;5068239;28;20179;-66
2022/03/11 01:37:22;;;;;;;10.67;7.30;;;;;;;;;;5069744;28;20260;-68
2022/03/11 01:39:47;;;;;;;14.73;7.70;;;;;;;;;;5068390;28;20189;-68
2022/03/11 01:42:12;;;;;;;10.90;7.50;;;;;;;;;;5064127;28;20179;-67
2022/03/11 01:44:37;;;;;;;11.00;7.27;;;;;;;;;;5069742;28;20218;-66
2022/03/11 01:47:03;;;;;;;11.50;6.90;;;;;;;;;;5052485;28;20196;-66
2022/03/11 01:49:28;;;;;;;11.17;7.07;;;;;;;;;;5069181;28;20504;-66
2022/03/11 01:51:53;;;;;;;11.77;7.70;;;;;;;;;;5064951;28;20574;-67
2022/03/11 01:54:18;;;;;;;10.90;7.53;;;;;;;;;;5068108;28;20189;-69
2022/03/11 01:56:44;;;;;;;14.07;8.20;;;;;;;;;;5068343;28;20173;-68
2022/03/11 01:59:11;;;;;;;13.13;8.37;;;;;;;;;;5069484;28;20203;-66
2022/03/11 02:01:36;;;;;;;14.30;7.60;;;;;;;;;;5050771;28;20229;-66
2022/03/11 02:04:01;;;;;;;12.00;7.47;;;;;;;;;;5069330;28;20226;-67
2022/03/11 02:06:26;;;;;;;15.90;7.77;;;;;;;;;;5070431;28;20184;-66
2022/03/11 02:08:52;;;;;;;9.93;7.60;;;;;;;;;;5067936;28;20659;-66
2022/03/11 02:11:18;;;;;;;13.10;8.67;;;;;;;;;;5046488;28;20197;-67
2022/03/11 02:13:44;;;;;;;12.63;7.47;;;;;;;;;;5071227;28;20169;-67
2022/03/11 02:16:13;;;;;;;13.87;8.30;;;;;;;;;;5069653;28;20179;-67
2022/03/11 02:18:38;;;;;;;12.03;7.00;;;;;;;;;;5050067;28;20205;-66
2022/03/11 02:21:03;;;;;;;13.47;8.13;;;;;;;;;;5069212;28;20223;-66
2022/03/11 02:23:29;;;;;;;11.10;7.70;;;;;;;;;;5067501;28;20264;-66
2022/03/11 02:25:54;;;;;;;11.83;7.90;;;;;;;;;;5068105;28;20262;-67
2022/03/11 02:28:19;;;;;;;11.00;7.60;;;;;;;;;;5067327;28;20310;-67
2022/03/11 02:30:45;;;;;;;11.13;8.10;;;;;;;;;;5067885;28;20209;-67
2022/03/11 02:33:10;;;;;;;10.33;7.13;;;;;;;;;;5065558;28;20181;-67
2022/03/11 02:35:35;;;;;;;11.57;7.33;;;;;;;;;;5065070;28;20264;-67
2022/03/11 02:38:00;;;;;;;11.30;7.70;;;;;;;;;;5069836;28;20169;-67
2022/03/11 02:40:25;;;;;;;11.57;7.83;;;;;;;;;;5062280;22;20223;-69
2022/03/11 02:42:50;;;;;;;10.70;7.33;;;;;;;;;;5051063;28;20218;-68
2022/03/11 02:45:16;;;;;;;12.83;8.10;;;;;;;;;;5050652;28;20227;-69
2022/03/11 02:47:41;;;;;;;12.40;8.27;;;;;;;;;;5050786;28;20257;-69
2022/03/11 02:50:06;;;;;;;11.60;7.10;;;;;;;;;;5048923;28;20580;-69
2022/03/11 02:52:31;;;;;;;16.23;8.87;;;;;;;;;;5050103;28;20196;-68
2022/03/11 02:54:57;;;;;;;14.70;8.43;;;;;;;;;;5049090;28;20178;-69
2022/03/11 02:57:22;;;;;;;13.63;8.93;;;;;;;;;;5047985;28;20170;-69
2022/03/11 02:59:47;;;;;;;12.73;8.47;;;;;;;;;;5049484;28;20192;-69
2022/03/11 03:02:13;;;;;;;13.13;8.90;;;;;;;;;;5048605;28;20197;-67
2022/03/11 03:04:38;;;;;;;12.93;8.47;;;;;;;;;;5048621;28;20689;-67
2022/03/11 03:07:03;;;;;;;14.03;8.50;;;;;;;;;;5049489;28;20174;-68
2022/03/11 03:09:29;;;;;;;12.50;8.00;;;;;;;;;;5049171;28;20292;-68
2022/03/11 03:11:54;;;;;;;11.47;7.33;;;;;;;;;;5045299;28;20229;-70
2022/03/11 03:14:19;;;;;;;10.63;7.87;;;;;;;;;;5045912;28;20180;-67
2022/03/11 03:16:44;;;;;;;13.90;8.87;;;;;;;;;;5049075;28;20173;-68
2022/03/11 03:19:10;;;;;;;14.37;8.67;;;;;;;;;;5048548;28;20575;-68
2022/03/11 03:21:35;;;;;;;13.87;8.23;;;;;;;;;;5049793;28;20233;-67
2022/03/11 03:24:01;;;;;;;14.50;8.67;;;;;;;;;;5047205;28;20647;-67
2022/03/11 03:26:26;;;;;;;12.13;8.40;;;;;;;;;;5049929;28;20615;-67
2022/03/11 03:28:51;;;;;;;14.37;9.23;;;;;;;;;;5048575;28;20196;-67
2022/03/11 03:31:19;;;;;;;12.43;8.27;;;;;;;;;;5049155;28;20401;-67
2022/03/11 03:33:44;;;;;;;13.27;8.40;;;;;;;;;;5048602;28;20663;-67
2022/03/11 03:36:09;;;;;;;20.57;8.50;;;;;;;;;;5049778;28;20174;-67
2022/03/11 03:38:34;;;;;;;13.50;8.17;;;;;;;;;;5047434;28;20212;-67
2022/03/11 03:40:59;;;;;;;11.37;8.00;;;;;;;;;;5047743;28;20701;-67
2022/03/11 03:43:25;;;;;;;13.40;8.83;;;;;;;;;;5029332;28;20173;-67
2022/03/11 03:45:50;;;;;;;14.63;9.30;;;;;;;;;;5048873;28;20179;-67
2022/03/11 03:48:15;;;;;;;12.17;7.40;;;;;;;;;;5044315;28;20178;-67
2022/03/11 03:50:40;;;;;;;12.93;8.80;;;;;;;;;;5044905;28;20570;-68
2022/03/11 03:53:05;;;;;;;12.97;8.80;;;;;;;;;;5049541;28;20215;-67
2022/03/11 03:55:30;;;;;;;15.27;9.43;;;;;;;;;;5047266;28;20559;-67
2022/03/11 03:57:56;;;;;;;11.63;8.27;;;;;;;;;;5049416;28;20292;-68
2022/03/11 04:00:22;;;;;;;11.20;8.10;;;;;;;;;;5049175;28;20202;-67
2022/03/11 04:02:47;;;;;;;13.90;8.13;;;;;;;;;;5048306;28;20182;-67
2022/03/11 04:05:13;;;;;;;12.03;8.87;;;;;;;;;;5047102;28;20197;-68
2022/03/11 04:07:39;;;;;;;10.53;7.70;;;;;;;;;;5047287;28;20197;-67
2022/03/11 04:10:04;;;;;;;12.67;8.87;;;;;;;;;;5048564;28;20209;-67
2022/03/11 04:12:31;;;;;;;13.27;8.47;;;;;;;;;;5051254;28;20677;-68
2022/03/11 04:14:56;;;;;;;12.30;7.97;;;;;;;;;;5051847;28;20177;-69
2022/03/11 04:17:21;;;;;;;13.10;7.93;;;;;;;;;;5052187;28;20185;-67
2022/03/11 04:19:46;;;;;;;11.37;7.57;;;;;;;;;;5039404;28;20185;-67
2022/03/11 04:22:12;;;;;;;13.23;7.63;;;;;;;;;;5052590;28;20201;-67
2022/03/11 04:24:37;;;;;;;10.57;7.57;;;;;;;;;;5051428;28;20178;-66
2022/03/11 04:27:02;;;;;;;11.60;8.20;;;;;;;;;;5051812;28;20693;-67
2022/03/11 04:29:27;;;;;;;10.80;7.33;;;;;;;;;;5052975;28;20213;-67
2022/03/11 04:31:52;;;;;;;13.03;7.77;;;;;;;;;;5051194;28;20197;-67
2022/03/11 04:34:18;;;;;;;11.40;7.17;;;;;;;;;;5052373;28;20252;-67
2022/03/11 04:36:43;;;;;;;17.00;7.70;;;;;;;;;;5052575;28;20235;-67
2022/03/11 04:39:08;;;;;;;12.37;8.07;;;;;;;;;;5050931;28;20186;-66
2022/03/11 04:41:34;;;;;;;12.77;7.83;;;;;;;;;;5050863;28;20314;-67
2022/03/11 04:43:59;;;;;;;9.93;6.93;;;;;;;;;;5052481;28;20631;-67
2022/03/11 04:46:24;;;;;;;11.23;6.73;;;;;;;;;;5050227;28;20652;-67
2022/03/11 04:48:50;;;;;;;11.17;7.33;;;;;;;;;;5049555;28;20196;-66
2022/03/11 04:51:15;;;;;;;12.00;7.63;;;;;;;;;;5043263;28;20200;-67
2022/03/11 04:53:41;;;;;;;12.47;7.40;;;;;;;;;;5051021;28;20173;-67
2022/03/11 04:56:06;;;;;;;12.87;7.40;;;;;;;;;;5051941;28;20181;-67
2022/03/11 04:58:31;;;;;;;14.03;7.60;;;;;;;;;;5052575;28;20311;-67
2022/03/11 05:00:56;;;;;;;11.83;7.50;;;;;;;;;;5051303;28;21697;-67
2022/03/11 05:03:21;;;;;;;11.73;8.00;;;;;;;;;;5050289;28;20753;-67
2022/03/11 05:05:47;;;;;;;10.53;6.80;;;;;;;;;;5031934;28;20182;-67
2022/03/11 05:08:12;;;;;;;9.07;6.47;;;;;;;;;;5051018;28;20295;-67
2022/03/11 05:10:37;;;;;;;11.10;6.90;;;;;;;;;;5047999;28;20217;-67
2022/03/11 05:13:02;;;;;;;11.27;7.03;;;;;;;;;;5051802;28;20181;-67
2022/03/11 05:15:27;;;;;;;12.37;7.33;;;;;;;;;;5049904;28;20190;-67
2022/03/11 05:17:52;;;;;;;13.60;7.07;;;;;;;;;;5052053;28;20231;-67
2022/03/11 05:20:18;;;;;;;12.60;7.67;;;;;;;;;;5049661;28;20247;-67
2022/03/11 05:22:43;;;;;;;9.60;6.30;;;;;;;;;;5050576;28;20217;-67
2022/03/11 05:25:09;;;;;;;10.63;6.77;;;;;;;;;;5049738;28;20189;-67
2022/03/11 05:27:34;;;;;;;10.80;7.27;;;;;;;;;;5050877;28;20217;-67
2022/03/11 05:30:00;;;;;;;9.43;6.17;;;;;;;;;;5051369;28;20236;-67
2022/03/11 05:32:25;;;;;;;9.33;6.80;;;;;;;;;;5050523;28;20177;-67
2022/03/11 05:34:50;;;;;;;11.33;7.00;;;;;;;;;;5051281;28;20528;-67
2022/03/11 05:37:15;;;;;;;13.77;7.10;;;;;;;;;;5050102;28;20181;-67
2022/03/11 05:39:41;;;;;;;10.10;6.60;;;;;;;;;;5032994;28;20647;-67
2022/03/11 05:42:07;;;;;;;12.43;7.40;;;;;;;;;;5046523;28;20201;-66
2022/03/11 05:44:32;;;;;;;10.43;6.70;;;;;;;;;;5048894;28;20243;-67
2022/03/11 05:46:58;;;;;;;11.13;6.90;;;;;;;;;;5051696;28;20389;-67
2022/03/11 05:49:24;;;;;;;11.83;6.80;;;;;;;;;;5050134;28;20316;-67
2022/03/11 05:51:49;;;;;;;9.33;6.67;;;;;;;;;;5043949;28;20205;-67
2022/03/11 05:54:14;;;;;;;12.40;7.03;;;;;;;;;;5046039;28;20204;-68
2022/03/11 05:56:39;;;;;;;9.43;6.57;;;;;;;;;;5051546;28;20192;-66
2022/03/11 05:59:05;;;;;;;9.90;6.37;;;;;;;;;;5049329;28;20251;-67
2022/03/11 06:01:31;;;;;;;10.30;6.67;;;;;;;;;;5042472;28;20216;-67
2022/03/11 06:03:56;;;;;;;10.43;6.73;;;;;;;;;;5046009;28;20189;-67
2022/03/11 06:06:21;;;;;;;10.07;6.93;;;;;;;;;;5049293;28;20184;-67
2022/03/11 06:08:46;;;;;;;12.30;7.20;;;;;;;;;;5049849;28;20243;-66
2022/03/11 06:11:11;;;;;;;9.67;6.70;;;;;;;;;;5049649;28;20265;-66
2022/03/11 06:13:36;;;;;;;10.93;7.23;;;;;;;;;;5047792;28;20542;-67
2022/03/11 06:16:02;;;;;;;12.03;7.43;;;;;;;;;;5049382;28;20196;-67
2022/03/11 06:18:28;;;;;;;10.47;6.93;;;;;;;;;;5051271;28;20261;-66
2022/03/11 06:20:53;;;;;;;12.00;7.37;;;;;;;;;;5048661;28;20228;-67
2022/03/11 06:23:18;;;;;;;10.93;7.20;;;;;;;;;;5050299;28;20226;-67
2022/03/11 06:25:43;;;;;;;13.70;6.97;;;;;;;;;;5048916;28;20638;-67
2022/03/11 06:28:08;;;;;;;12.33;7.23;;;;;;;;;;5050767;28;20184;-67
2022/03/11 06:30:34;;;;;;;14.50;7.67;;;;;;;;;;5048219;28;20213;-68
2022/03/11 06:32:59;;;;;;;10.90;5.93;;;;;;;;;;5044969;28;20323;-67
2022/03/11 06:35:24;;;;;;;14.23;7.80;;;;;;;;;;5048919;28;20205;-67
2022/03/11 06:37:50;;;;;;;10.87;6.97;;;;;;;;;;5030643;28;20204;-67
2022/03/11 06:40:16;;;;;;;11.70;8.10;;;;;;;;;;5045054;28;20193;-68
2022/03/11 06:42:42;;;;;;;13.17;6.93;;;;;;;;;;5046151;28;20182;-67
2022/03/11 06:45:08;;;;;;;9.20;6.53;;;;;;;;;;5048605;28;20189;-67
2022/03/11 06:47:34;;;;;;;10.63;7.20;;;;;;;;;;5049756;28;20178;-67
2022/03/11 06:49:59;;;;;;;10.33;7.93;;;;;;;;;;5049979;28;20300;-67
2022/03/11 06:52:24;;;;;;;10.33;7.03;;;;;;;;;;5049059;28;20686;-67
2022/03/11 06:54:50;;;;;;;13.77;8.57;;;;;;;;;;5050032;28;20213;-68
2022/03/11 06:57:17;;;;;;;11.83;7.60;;;;;;;;;;5032890;28;20264;-67
2022/03/11 06:59:43;;;;;;;11.73;7.43;;;;;;;;;;5049708;28;20192;-66
2022/03/11 07:02:08;;;;;;;11.77;7.87;;;;;;;;;;5049492;28;20210;-67
2022/03/11 07:04:34;;;;;;;13.87;8.83;;;;;;;;;;5046367;28;20277;-66
2022/03/11 07:06:59;;;;;;;12.53;8.33;;;;;;;;;;5049583;28;20197;-67
2022/03/11 07:09:25;;;;;;;10.77;6.87;;;;;;;;;;5049491;28;20205;-67
2022/03/11 07:11:51;;;;;;;15.90;7.83;;;;;;;;;;5047664;28;20197;-67
2022/03/11 07:14:16;;;;;;;10.60;7.20;;;;;;;;;;5036764;28;20185;-67
2022/03/11 07:16:41;;;;;;;11.80;7.63;;;;;;;;;;5049849;28;20234;-66
2022/03/11 07:19:08;;;;;;;14.83;7.87;;;;;;;;;;5048959;28;20258;-66
2022/03/11 07:21:33;;;;;;;14.10;9.03;;;;;;;;;;5049332;28;20331;-67
2022/03/11 07:23:58;;;;;;;11.23;8.07;;;;;;;;;;5049893;28;20690;-68
2022/03/11 07:26:23;;;;;;;11.00;7.80;;;;;;;;;;5049807;28;20174;-67
2022/03/11 07:28:48;;;;;;;13.10;8.90;;;;;;;;;;5049458;28;20654;-67
2022/03/11 07:31:13;;;;;;;12.63;8.53;;;;;;;;;;5045726;28;20861;-67
2022/03/11 07:33:39;;;;;;;12.93;7.97;;;;;;;;;;5044394;28;20280;-67
2022/03/11 07:36:04;;;;;;;11.87;8.03;;;;;;;;;;5050338;28;20169;-67
2022/03/11 07:38:31;;;;;;;11.57;7.63;;;;;;;;;;5050142;28;20528;-67
2022/03/11 07:40:56;;;;;;;14.90;8.50;;;;;;;;;;5050235;28;20213;-67
2022/03/11 07:43:21;;;;;;;13.17;7.83;;;;;;;;;;5048292;28;20243;-67
2022/03/11 07:45:46;;;;;;;11.90;8.47;;;;;;;;;;5049559;28;20178;-67
2022/03/11 07:48:12;;;;;;;13.20;9.10;;;;;;;;;;5053633;28;20210;-67
2022/03/11 07:50:37;;;;;;;13.43;8.33;;;;;;;;;;5053010;28;20214;-68
2022/03/11 07:53:02;;;;;;;14.23;8.87;;;;;;;;;;5054567;28;20585;-67
2022/03/11 07:55:27;;;;;;;11.67;9.00;;;;;;;;;;5052886;28;20252;-67
2022/03/11 07:57:52;;;;;;;17.30;8.00;;;;;;;;;;5054145;28;20261;-67
2022/03/11 08:00:18;;;;;;;12.40;8.30;;;;;;;;;;5035321;28;20188;-67
2022/03/11 08:02:43;;;;;;;10.40;7.93;;;;;;;;;;5054271;28;20260;-67
2022/03/11 08:05:14;;;;;;;14.20;8.73;;;;;;;;;;5052096;28;20917;-66
2022/03/11 08:07:39;;;;;;;13.83;8.70;;;;;;;;;;5054250;28;20227;-67
2022/03/11 08:10:10;;;;;;;10.30;8.23;;;;;;;;;;5053181;28;20211;-69
2022/03/11 08:12:36;;;;;;;11.90;7.80;;;;;;;;;;5053946;28;20184;-67
2022/03/11 08:15:02;;;;;;;11.53;8.30;;;;;;;;;;5051515;28;20173;-67
2022/03/11 08:17:28;;;;;;;14.77;8.30;;;;;;;;;;5052628;28;20565;-67
2022/03/11 08:19:53;;;;;;;14.20;8.60;;;;;;;;;;5050664;28;20182;-67
2022/03/11 08:22:18;;;;;;;13.63;9.07;;;;;;;;;;5050911;28;20201;-67
2022/03/11 08:24:43;;;;;;;13.97;10.60;;;;;;;;;;5051946;28;20189;-67
2022/03/11 08:27:11;;;;;;;11.97;8.50;;;;;;;;;;5052873;28;20312;-66
2022/03/11 08:29:36;;;;;;;15.67;9.33;;;;;;;;;;5052529;28;20205;-67
2022/03/11 08:32:03;;;;;;;13.90;9.10;;;;;;;;;;5041608;28;20206;-69
2022/03/11 08:34:28;;;;;;;12.90;8.83;;;;;;;;;;5046787;28;20196;-67
2022/03/11 08:36:53;;;;;;;12.97;9.00;;;;;;;;;;5048210;28;20627;-67
2022/03/11 08:39:19;;;;;;;10.57;8.97;;;;;;;;;;5048317;28;20189;-69
2022/03/11 08:41:44;;;;;;;12.70;9.07;;;;;;;;;;5066527;22;20232;-70
2022/03/11 08:44:09;;;;;;;17.63;9.30;;;;;;;;;;5065120;28;20176;-70
2022/03/11 08:46:36;;;;;;;15.73;10.43;;;;;;;;;;5065079;28;20173;-69
2022/03/11 08:49:02;;;;;;;17.47;9.47;;;;;;;;;;5065421;28;20661;-69
2022/03/11 08:51:27;;;;;;;15.60;9.63;;;;;;;;;;5068173;28;20212;-74
2022/03/11 08:53:52;;;;;;;12.33;9.03;;;;;;;;;;5068403;28;20181;-69
2022/03/11 08:56:21;;;;;;;16.27;10.03;;;;;;;;;;5069874;28;20230;-69
2022/03/11 08:58:47;;;;;;;13.93;9.53;;;;;;;;;;5064822;28;20177;-69
2022/03/11 09:01:12;;;;;;;14.23;9.37;;;;;;;;;;5066469;28;20258;-68
2022/03/11 09:03:37;;;;;;;14.70;10.47;;;;;;;;;;5065852;28;20188;-69
2022/03/11 09:06:02;;;;;;;14.03;9.67;;;;;;;;;;5061126;28;20192;-69
2022/03/11 09:08:28;;;;;;;12.70;9.70;;;;;;;;;;5068843;28;20799;-69
2022/03/11 09:10:53;;;;;;;14.07;9.87;;;;;;;;;;5064958;28;20208;-69
2022/03/11 09:13:18;;;;;;;16.80;10.20;;;;;;;;;;5070324;28;20230;-68
2022/03/11 09:15:43;;;;;;;16.07;9.20;;;;;;;;;;5052850;28;20177;-69
2022/03/11 09:18:10;;;;;;;12.50;9.40;;;;;;;;;;5071277;28;20172;-69
2022/03/11 09:20:35;;;;;;;17.10;9.38;;;;;;;;;;5071326;28;20184;-68
2022/03/11 09:23:02;;;;;;;13.13;9.23;;;;;;;;;;5072039;28;20169;-68
2022/03/11 09:25:28;;;;;;;17.13;10.00;;;;;;;;;;5071385;28;20169;-67
2022/03/11 09:27:53;;;;;;;13.77;9.87;;;;;;;;;;5071000;28;20515;-69
2022/03/11 09:30:18;;;;;;;13.60;9.90;;;;;;;;;;5069568;28;20560;-69
2022/03/11 09:32:43;;;;;;;12.80;9.27;;;;;;;;;;5069107;28;20197;-68
2022/03/11 09:35:09;;;;;;;20.97;10.80;;;;;;;;;;5070689;28;20173;-68
2022/03/11 09:37:34;;;;;;;13.43;9.70;;;;;;;;;;5071225;28;20480;-68
2022/03/11 09:39:59;;;;;;;25.47;10.00;;;;;;;;;;5070872;28;20169;-68
2022/03/11 09:42:25;;;;;;;18.27;10.10;;;;;;;;;;5070940;28;20315;-68
2022/03/11 09:44:51;;;;;;;14.63;9.32;;;;;;;;;;5067244;28;20192;-68
2022/03/11 09:47:17;;;;;;;14.97;9.67;;;;;;;;;;5041780;28;20215;-69
2022/03/11 09:49:42;;;;;;;12.40;9.80;;;;;;;;;;5060563;28;20341;-68
2022/03/11 09:52:09;;;;;;;14.02;10.20;;;;;;;;;;5069917;28;20238;-69
2022/03/11 09:54:34;;;;;;;13.40;10.40;;;;;;;;;;5068717;28;20259;-69
2022/03/11 09:56:59;;;;;;;13.50;10.10;;;;;;;;;;5068378;28;20302;-68
2022/03/11 09:59:25;;;;;;;13.25;10.10;;;;;;;;;;5070548;28;20185;-68
2022/03/11 10:01:51;;;;;;;15.50;10.75;;;;;;;;;;5068648;28;20196;-68
2022/03/11 10:04:16;;;;;;;14.85;9.73;;;;;;;;;;5067282;28;20192;-68
2022/03/11 10:06:42;;;;;;;14.13;10.10;;;;;;;;;;5068641;28;20177;-68
2022/03/11 10:09:17;;;;;;;17.95;10.90;;;;;;;;;;5050543;28;20181;-68
2022/03/11 10:11:42;;;;;;;13.50;9.85;;;;;;;;;;5066681;28;20252;-68
2022/03/11 10:14:07;;;;;;;16.75;11.35;;;;;;;;;;5069534;28;20276;-69
2022/03/11 10:16:33;;;;;;;15.80;10.50;;;;;;;;;;5072905;28;20173;-68
2022/03/11 10:19:03;;;;;;;17.88;10.82;;;;;;;;;;5070625;28;20265;-68
2022/03/11 10:21:30;;;;;;;14.27;10.50;;;;;;;;;;5066876;28;20197;-69
2022/03/11 10:23:55;;;;;;;14.48;10.70;;;;;;;;;;5065327;28;20222;-69
2022/03/11 10:26:33;;;;;;;15.73;10.93;;;;;;;;;;5067943;28;20252;-69
2022/03/11 10:28:59;;;;;;;17.50;10.75;;;;;;;;;;5068390;28;20710;-69
2022/03/11 10:31:34;;;;;;;14.95;10.93;;;;;;;;;;5068143;28;20201;-69
2022/03/11 10:34:18;;;;;;;15.93;11.55;;;;;;;;;;5051207;28;20172;-68
2022/03/11 10:36:50;;;;;;;15.32;11.32;;;;;;;;;;5062329;28;20180;-68
2022/03/11 10:39:17;;;;;;;15.80;11.27;;;;;;;;;;5049938;28;20173;-68
2022/03/11 10:41:42;;;;;;;16.00;11.23;;;;;;;;;;5069412;28;20221;-68
2022/03/11 10:44:12;;;;;;;18.67;11.20;;;;;;;;;;5069236;28;20192;-69
2022/03/11 10:46:37;;;;;;;13.65;11.90;;;;;;;;;;5068863;28;20200;-69
2022/03/11 10:49:02;;;;;;;15.90;10.82;;;;;;;;;;5068458;28;20208;-68
2022/03/11 10:51:33;;;;;;;16.67;10.95;;;;;;;;;;5068817;28;20326;-68
2022/03/11 10:54:00;;;;;;;20.42;11.30;;;;;;;;;;5067698;28;20183;-68
2022/03/11 10:56:33;;;;;;;15.30;11.30;;;;;;;;;;5067778;28;20187;-70
2022/03/11 10:58:58;;;;;;;15.20;11.35;;;;;;;;;;5068091;28;20251;-68
2022/03/11 11:01:35;;;;;;;17.80;11.15;;;;;;;;;;5067923;28;20189;-68
2022/03/11 11:04:00;;;;;;;18.20;10.98;;;;;;;;;;5067650;28;20169;-69
2022/03/11 11:06:26;;;;;;;17.80;10.48;;;;;;;;;;5068912;28;20173;-68
2022/03/11 11:08:51;;;;;;;19.05;11.40;;;;;;;;;;5067392;28;20579;-69
2022/03/11 11:11:17;;;;;;;16.15;10.30;;;;;;;;;;5066452;28;20188;-68
2022/03/11 11:13:42;;;;;;;15.52;10.85;;;;;;;;;;5067839;28;20173;-68
2022/03/11 11:16:07;;;;;;;16.33;10.20;;;;;;;;;;5069102;28;20650;-69
2022/03/11 11:18:33;;;;;;;13.52;10.52;;;;;;;;;;5067754;28;20566;-68
2022/03/11 11:20:58;;;;;;;13.40;9.88;;;;;;;;;;5071949;28;20201;-69
2022/03/11 11:23:24;;;;;;;16.75;11.07;;;;;;;;;;5073492;28;20206;-68
2022/03/11 11:25:50;;;;;;;17.58;10.50;;;;;;;;;;5072285;28;20187;-68
2022/03/11 11:28:17;;;;;;;16.08;10.40;;;;;;;;;;5073893;28;20188;-68
2022/03/11 11:30:43;;;;;;;15.90;10.45;;;;;;;;;;5073658;28;20208;-69
2022/03/11 11:33:09;;;;;;;16.08;10.77;;;;;;;;;;5072795;28;20173;-69
2022/03/11 11:35:36;;;;;;;17.25;10.80;;;;;;;;;;5073296;28;20180;-68
2022/03/11 11:38:02;;;;;;;12.75;10.07;;;;;;;;;;5073047;28;20173;-69
2022/03/11 11:40:32;;;;;;;15.50;10.73;;;;;;;;;;5054632;28;20627;-69
2022/03/11 11:43:12;;;;;;;14.30;9.90;;;;;;;;;;5073109;28;20248;-68
2022/03/11 11:45:44;;;;;;;16.70;10.60;;;;;;;;;;5071389;28;20184;-69
2022/03/11 11:48:28;;;;;;;17.52;11.13;;;;;;;;;;5072941;28;20181;-68
2022/03/11 11:50:53;;;;;;;16.63;9.75;;;;;;;;;;5072932;28;20239;-67
2022/03/11 11:53:40;;;;;;;15.50;10.52;;;;;;;;;;5072572;28;20702;-69
2022/03/11 11:56:24;;;;;;;18.85;11.60;;;;;;;;;;5073252;28;20231;-68
2022/03/11 11:58:51;;;;;;;15.40;11.02;;;;;;;;;;5059458;28;20176;-69
2022/03/11 12:01:35;;;;;;;19.48;11.32;;;;;;;;;;5072148;28;20653;-69
2022/03/11 12:04:19;;;;;;;16.00;10.82;;;;;;;;;;5051469;28;20193;-68
2022/03/11 12:07:03;;;;;;;15.45;11.48;;;;;;;;;;5069388;28;20169;-69
2022/03/11 12:09:37;;;;;;;16.10;11.02;;;;;;;;;;5071817;28;20204;-69
2022/03/11 12:12:03;;;;;;;15.98;12.45;;;;;;;;;;5070276;28;20228;-68
2022/03/11 12:14:29;;;;;;;18.60;11.93;;;;;;;;;;5072053;28;20310;-67
2022/03/11 12:16:58;;;;;;;21.60;11.55;;;;;;;;;;5071958;28;20236;-67
2022/03/11 12:19:40;;;;;;;15.43;10.85;;;;;;;;;;5071456;28;20543;-65
2022/03/11 12:22:43;;;;;;;19.23;12.20;;;;;;;;;;5068291;28;20192;-67
2022/03/11 12:25:11;;;;;;;14.80;11.20;;;;;;;;;;4996863;28;20188;-67
2022/03/11 12:27:56;;;;;;;16.50;12.52;;;;;;;;;;4996876;28;20223;-68
2022/03/11 12:30:21;;;;;;;19.95;11.75;;;;;;;;;;5044137;28;20220;-68
2022/03/11 12:32:48;;;;;;;23.73;12.70;;;;;;;;;;5047684;28;20193;-66
2022/03/11 12:35:17;;;;;;;17.85;12.13;;;;;;;;;;5049974;28;20225;-67
2022/03/11 12:37:42;;;;;;;17.35;12.23;;;;;;;;;;5072364;28;20643;-67
2022/03/11 12:40:08;;;;;;;17.65;13.18;;;;;;;;;;5053544;28;20203;-67
2022/03/11 12:42:38;;;;;;;16.90;11.60;;;;;;;;;;5070979;28;20697;-67
2022/03/11 12:45:03;;;;;;;20.25;13.07;;;;;;;;;;5070653;28;20193;-68
2022/03/11 12:47:38;;;;;;;18.77;12.60;;;;;;;;;;5071708;28;20185;-68
2022/03/11 12:50:04;;;;;;;19.20;12.68;;;;;;;;;;5071249;28;20206;-67
2022/03/11 12:52:36;;;;;;;17.88;11.82;;;;;;;;;;5071213;28;20197;-67
2022/03/11 12:55:01;;;;;;;19.67;12.68;;;;;;;;;;5049800;28;20176;-67
2022/03/11 12:57:26;;;;;;;20.88;14.68;;;;;;;;;;5072059;28;20520;-67
2022/03/11 12:59:51;;;;;;;19.50;14.43;;;;;;;;;;5068617;28;20249;-66
2022/03/11 13:02:17;;;;;;;17.63;13.15;;;;;;;;;;5064410;28;20209;-66
2022/03/11 13:04:43;;;;;;;15.82;12.35;;;;;;;;;;5070362;28;20177;-66
2022/03/11 13:07:08;;;;;;;19.80;12.68;;;;;;;;;;5067859;28;20203;-68
2022/03/11 13:09:33;;;;;;;19.63;13.07;;;;;;;;;;5070530;28;20266;-67
2022/03/11 13:12:17;;;;;;;18.35;14.10;;;;;;;;;;5047063;28;20243;-68
2022/03/11 13:14:42;;;;;;;20.80;14.00;;;;;;;;;;5069050;28;20184;-67
2022/03/11 13:17:07;;;;;;;19.02;14.68;;;;;;;;;;5063827;28;20177;-65
2022/03/11 13:19:33;;;;;;;23.83;13.97;;;;;;;;;;5061441;28;20271;-67
2022/03/11 13:21:58;;;;;;;18.48;13.85;;;;;;;;;;5063192;28;20488;-64
2022/03/11 13:24:23;;;;;;;21.77;15.43;;;;;;;;;;5062468;28;20199;-64
2022/03/11 13:26:48;;;;;;;24.52;14.82;;;;;;;;;;5061184;28;20449;-65
2022/03/11 13:29:13;;;;;;;22.63;14.80;;;;;;;;;;5060843;28;20177;-64
2022/03/11 13:31:39;;;;;;;21.15;14.35;;;;;;;;;;5060589;28;20197;-66
2022/03/11 13:34:07;;;;;;;25.75;14.52;;;;;;;;;;5061016;28;20529;-66
2022/03/11 13:36:34;;;;;;;17.83;13.68;;;;;;;;;;5060780;28;20475;-66
2022/03/11 13:39:07;;;;;;;18.75;14.40;;;;;;;;;;5060627;28;20173;-66
2022/03/11 13:41:45;;;;;;;17.17;13.50;;;;;;;;;;5060861;28;20216;-67
2022/03/11 13:44:13;;;;;;;19.38;14.40;;;;;;;;;;5060399;28;20172;-67
2022/03/11 13:46:40;;;;;;;18.15;13.40;;;;;;;;;;5061810;28;21748;-67
2022/03/11 13:49:07;;;;;;;17.42;13.68;;;;;;;;;;5063250;28;20658;-66
2022/03/11 13:51:51;;;;;;;17.83;14.52;;;;;;;;;;5063238;28;20201;-65
2022/03/11 13:54:28;;;;;;;23.02;14.73;;;;;;;;;;5062554;28;20260;-66
2022/03/11 13:56:57;;;;;;;17.95;13.38;;;;;;;;;;5069785;28;20303;-66
2022/03/11 13:59:29;;;;;;;19.70;15.45;;;;;;;;;;5067204;28;20311;-66
2022/03/11 14:01:54;;;;;;;19.17;14.27;;;;;;;;;;5070857;28;20572;-66
2022/03/11 14:04:21;;;;;;;18.77;14.25;;;;;;;;;;5067591;28;20227;-66
2022/03/11 14:06:52;;;;;;;18.23;13.63;;;;;;;;;;5062488;28;20564;-66
2022/03/11 14:09:25;;;;;;;19.77;12.98;;;;;;;;;;5046399;28;20195;-66
2022/03/11 14:11:54;;;;;;;17.15;13.43;;;;;;;;;;5044643;28;20284;-66
2022/03/11 14:14:26;;;;;;;20.75;13.77;;;;;;;;;;5043732;28;20186;-66
2022/03/11 14:16:52;;;;;;;20.55;14.00;;;;;;;;;;5044176;28;20206;-66
2022/03/11 14:19:17;;;;;;;19.80;13.80;;;;;;;;;;5055891;22;20658;-67
2022/03/11 14:21:43;;;;;;;21.43;15.00;;;;;;;;;;5015582;28;20223;-68